sensor_id;sensor_type;location;lat;lon;timestamp;P1;durP1;ratioP1;P2;durP2;ratioP2
10418;SDS011;5256;48.728;9.140;2022-11-15T00:00:32;0.43;;;0.43;;
10418;SDS011;5256;48.728;9.140;2022-11-15T00:02:58;0.50;;;0.50;;
10418;SDS011;5256;48.728;9.140;2022-11-15T00:05:24;0.47;;;0.47;;
10418;SDS011;5256;48.728;9.140;2022-11-15T00:07:49;0.50;;;0.50;;
10418;SDS011;5256;48.728;9.140;2022-11-15T00:10:15;0.40;;;0.40;;
10418;SDS011;5256;48.728;9.140;2022-11-15T00:12:41;0.40;;;0.40;;
10418;SDS011;5256;48.728;9.140;2022-11-15T00:15:07;0.50;;;0.50;;
10418;SDS011;5256;48.728;9.140;2022-11-15T00:17:32;0.43;;;0.43;;
10418;SDS011;5256;48.728;9.140;2022-11-15T00:19:58;0.40;;;0.40;;
10418;SDS011;5256;48.728;9.140;2022-11-15T00:22:24;0.50;;;0.50;;
10418;SDS011;5256;48.728;9.140;2022-11-15T00:24:49;0.40;;;0.40;;
10418;SDS011;5256;48.728;9.140;2022-11-15T00:27:15;0.50;;;0.50;;
10418;SDS011;5256;48.728;9.140;2022-11-15T00:29:40;0.50;;;0.50;;
10418;SDS011;5256;48.728;9.140;2022-11-15T00:32:08;0.50;;;0.50;;
10418;SDS011;5256;48.728;9.140;2022-11-15T00:34:35;0.50;;;0.50;;
10418;SDS011;5256;48.728;9.140;2022-11-15T00:37:00;0.40;;;0.40;;
10418;SDS011;5256;48.728;9.140;2022-11-15T00:39:26;0.50;;;0.50;;
10418;SDS011;5256;48.728;9.140;2022-11-15T00:41:51;0.50;;;0.50;;
10418;SDS011;5256;48.728;9.140;2022-11-15T00:44:17;0.50;;;0.50;;
10418;SDS011;5256;48.728;9.140;2022-11-15T00:46:42;0.50;;;0.50;;
10418;SDS011;5256;48.728;9.140;2022-11-15T00:49:08;0.40;;;0.40;;
10418;SDS011;5256;48.728;9.140;2022-11-15T00:51:34;0.50;;;0.50;;
10418;SDS011;5256;48.728;9.140;2022-11-15T00:53:59;0.50;;;0.50;;
10418;SDS011;5256;48.728;9.140;2022-11-15T00:56:25;0.50;;;0.50;;
10418;SDS011;5256;48.728;9.140;2022-11-15T00:58:50;0.50;;;0.50;;
10418;SDS011;5256;48.728;9.140;2022-11-15T01:01:17;0.47;;;0.47;;
10418;SDS011;5256;48.728;9.140;2022-11-15T01:03:42;0.50;;;0.50;;
10418;SDS011;5256;48.728;9.140;2022-11-15T01:06:08;0.40;;;0.40;;
10418;SDS011;5256;48.728;9.140;2022-11-15T01:08:34;0.47;;;0.47;;
10418;SDS011;5256;48.728;9.140;2022-11-15T01:11:00;0.60;;;0.60;;
10418;SDS011;5256;48.728;9.140;2022-11-15T01:13:31;0.50;;;0.50;;
10418;SDS011;5256;48.728;9.140;2022-11-15T01:15:58;0.53;;;0.53;;
10418;SDS011;5256;48.728;9.140;2022-11-15T01:18:24;0.40;;;0.40;;
10418;SDS011;5256;48.728;9.140;2022-11-15T01:20:50;0.50;;;0.50;;
10418;SDS011;5256;48.728;9.140;2022-11-15T01:23:15;0.40;;;0.40;;
10418;SDS011;5256;48.728;9.140;2022-11-15T01:25:41;0.40;;;0.40;;
10418;SDS011;5256;48.728;9.140;2022-11-15T01:28:06;0.50;;;0.50;;
10418;SDS011;5256;48.728;9.140;2022-11-15T01:30:32;0.40;;;0.40;;
10418;SDS011;5256;48.728;9.140;2022-11-15T01:32:58;0.50;;;0.50;;
10418;SDS011;5256;48.728;9.140;2022-11-15T01:35:23;0.40;;;0.40;;
10418;SDS011;5256;48.728;9.140;2022-11-15T01:37:49;0.50;;;0.50;;
10418;SDS011;5256;48.728;9.140;2022-11-15T01:40:14;0.40;;;0.40;;
10418;SDS011;5256;48.728;9.140;2022-11-15T01:42:40;0.47;;;0.47;;
10418;SDS011;5256;48.728;9.140;2022-11-15T01:45:07;0.50;;;0.50;;
10418;SDS011;5256;48.728;9.140;2022-11-15T01:47:39;0.40;;;0.40;;
10418;SDS011;5256;48.728;9.140;2022-11-15T01:50:10;0.40;;;0.40;;
10418;SDS011;5256;48.728;9.140;2022-11-15T01:52:39;0.40;;;0.40;;
10418;SDS011;5256;48.728;9.140;2022-11-15T01:55:16;0.60;;;0.60;;
10418;SDS011;5256;48.728;9.140;2022-11-15T01:57:49;0.57;;;0.57;;
10418;SDS011;5256;48.728;9.140;2022-11-15T02:00:18;0.50;;;0.50;;
10418;SDS011;5256;48.728;9.140;2022-11-15T02:02:43;0.50;;;0.50;;
10418;SDS011;5256;48.728;9.140;2022-11-15T02:05:09;0.50;;;0.50;;
10418;SDS011;5256;48.728;9.140;2022-11-15T02:07:35;0.50;;;0.50;;
10418;SDS011;5256;48.728;9.140;2022-11-15T02:10:04;0.50;;;0.50;;
10418;SDS011;5256;48.728;9.140;2022-11-15T02:12:33;0.50;;;0.50;;
10418;SDS011;5256;48.728;9.140;2022-11-15T02:14:59;0.50;;;0.50;;
10418;SDS011;5256;48.728;9.140;2022-11-15T02:17:31;0.47;;;0.47;;
10418;SDS011;5256;48.728;9.140;2022-11-15T02:25:20;0.50;;;0.50;;
10418;SDS011;5256;48.728;9.140;2022-11-15T02:33:50;0.57;;;0.57;;
10418;SDS011;5256;48.728;9.140;2022-11-15T02:36:30;0.50;;;0.50;;
10418;SDS011;5256;48.728;9.140;2022-11-15T02:39:35;0.53;;;0.53;;
10418;SDS011;5256;48.728;9.140;2022-11-15T02:42:17;0.50;;;0.50;;
10418;SDS011;5256;48.728;9.140;2022-11-15T02:45:08;0.50;;;0.50;;
10418;SDS011;5256;48.728;9.140;2022-11-15T02:47:41;0.40;;;0.40;;
10418;SDS011;5256;48.728;9.140;2022-11-15T02:50:12;0.47;;;0.47;;
10418;SDS011;5256;48.728;9.140;2022-11-15T02:52:43;0.40;;;0.40;;
10418;SDS011;5256;48.728;9.140;2022-11-15T03:00:48;0.50;;;0.50;;
10418;SDS011;5256;48.728;9.140;2022-11-15T03:04:11;0.60;;;0.60;;
10418;SDS011;5256;48.728;9.140;2022-11-15T03:06:58;0.60;;;0.60;;
10418;SDS011;5256;48.728;9.140;2022-11-15T03:12:03;0.50;;;0.50;;
10418;SDS011;5256;48.728;9.140;2022-11-15T03:14:53;0.50;;;0.50;;
10418;SDS011;5256;48.728;9.140;2022-11-15T03:17:27;0.40;;;0.40;;
10418;SDS011;5256;48.728;9.140;2022-11-15T03:19:56;0.50;;;0.50;;
10418;SDS011;5256;48.728;9.140;2022-11-15T03:22:24;0.50;;;0.50;;
10418;SDS011;5256;48.728;9.140;2022-11-15T03:24:54;0.50;;;0.50;;
10418;SDS011;5256;48.728;9.140;2022-11-15T03:27:24;0.47;;;0.47;;
10418;SDS011;5256;48.728;9.140;2022-11-15T03:29:54;0.50;;;0.50;;
10418;SDS011;5256;48.728;9.140;2022-11-15T03:32:25;0.50;;;0.50;;
10418;SDS011;5256;48.728;9.140;2022-11-15T03:34:58;0.40;;;0.40;;
10418;SDS011;5256;48.728;9.140;2022-11-15T03:37:45;0.50;;;0.50;;
10418;SDS011;5256;48.728;9.140;2022-11-15T03:40:16;0.50;;;0.50;;
10418;SDS011;5256;48.728;9.140;2022-11-15T03:45:18;0.40;;;0.40;;
10418;SDS011;5256;48.728;9.140;2022-11-15T03:47:49;0.50;;;0.50;;
10418;SDS011;5256;48.728;9.140;2022-11-15T03:50:20;0.50;;;0.50;;
10418;SDS011;5256;48.728;9.140;2022-11-15T03:52:47;0.50;;;0.50;;
10418;SDS011;5256;48.728;9.140;2022-11-15T03:55:18;0.53;;;0.53;;
10418;SDS011;5256;48.728;9.140;2022-11-15T03:57:46;0.50;;;0.50;;
10418;SDS011;5256;48.728;9.140;2022-11-15T04:00:13;0.50;;;0.50;;
10418;SDS011;5256;48.728;9.140;2022-11-15T04:02:39;0.50;;;0.50;;
10418;SDS011;5256;48.728;9.140;2022-11-15T04:05:05;0.50;;;0.50;;
10418;SDS011;5256;48.728;9.140;2022-11-15T04:07:31;0.50;;;0.50;;
10418;SDS011;5256;48.728;9.140;2022-11-15T04:09:56;0.40;;;0.40;;
10418;SDS011;5256;48.728;9.140;2022-11-15T04:12:28;0.50;;;0.50;;
10418;SDS011;5256;48.728;9.140;2022-11-15T04:15:08;0.57;;;0.57;;
10418;SDS011;5256;48.728;9.140;2022-11-15T04:23:05;0.47;;;0.47;;
10418;SDS011;5256;48.728;9.140;2022-11-15T04:25:54;0.50;;;0.50;;
10418;SDS011;5256;48.728;9.140;2022-11-15T04:28:22;0.60;;;0.60;;
10418;SDS011;5256;48.728;9.140;2022-11-15T04:30:48;0.50;;;0.50;;
10418;SDS011;5256;48.728;9.140;2022-11-15T04:33:14;0.50;;;0.50;;
10418;SDS011;5256;48.728;9.140;2022-11-15T04:35:41;0.50;;;0.50;;
10418;SDS011;5256;48.728;9.140;2022-11-15T04:38:07;0.50;;;0.50;;
10418;SDS011;5256;48.728;9.140;2022-11-15T04:40:35;0.57;;;0.57;;
10418;SDS011;5256;48.728;9.140;2022-11-15T04:43:02;0.50;;;0.50;;
10418;SDS011;5256;48.728;9.140;2022-11-15T04:45:28;0.50;;;0.50;;
10418;SDS011;5256;48.728;9.140;2022-11-15T04:47:54;0.63;;;0.63;;
10418;SDS011;5256;48.728;9.140;2022-11-15T04:50:19;0.50;;;0.50;;
10418;SDS011;5256;48.728;9.140;2022-11-15T04:52:52;0.50;;;0.50;;
10418;SDS011;5256;48.728;9.140;2022-11-15T04:55:18;0.50;;;0.50;;
10418;SDS011;5256;48.728;9.140;2022-11-15T04:57:44;0.60;;;0.60;;
10418;SDS011;5256;48.728;9.140;2022-11-15T05:00:11;0.60;;;0.60;;
10418;SDS011;5256;48.728;9.140;2022-11-15T05:02:38;0.50;;;0.50;;
10418;SDS011;5256;48.728;9.140;2022-11-15T05:05:23;0.50;;;0.50;;
10418;SDS011;5256;48.728;9.140;2022-11-15T05:07:49;0.50;;;0.50;;
10418;SDS011;5256;48.728;9.140;2022-11-15T05:10:15;0.50;;;0.50;;
10418;SDS011;5256;48.728;9.140;2022-11-15T05:12:41;0.50;;;0.50;;
10418;SDS011;5256;48.728;9.140;2022-11-15T05:15:06;0.50;;;0.50;;
10418;SDS011;5256;48.728;9.140;2022-11-15T05:17:32;0.50;;;0.50;;
10418;SDS011;5256;48.728;9.140;2022-11-15T05:19:58;0.50;;;0.50;;
10418;SDS011;5256;48.728;9.140;2022-11-15T05:22:23;0.60;;;0.60;;
10418;SDS011;5256;48.728;9.140;2022-11-15T05:24:49;0.57;;;0.57;;
10418;SDS011;5256;48.728;9.140;2022-11-15T05:27:15;0.50;;;0.50;;
10418;SDS011;5256;48.728;9.140;2022-11-15T05:29:40;0.50;;;0.50;;
10418;SDS011;5256;48.728;9.140;2022-11-15T05:32:06;0.50;;;0.50;;
10418;SDS011;5256;48.728;9.140;2022-11-15T05:34:33;0.50;;;0.50;;
10418;SDS011;5256;48.728;9.140;2022-11-15T05:36:59;0.50;;;0.50;;
10418;SDS011;5256;48.728;9.140;2022-11-15T05:39:25;0.60;;;0.60;;
10418;SDS011;5256;48.728;9.140;2022-11-15T05:42:09;0.60;;;0.60;;
10418;SDS011;5256;48.728;9.140;2022-11-15T05:44:37;0.60;;;0.60;;
10418;SDS011;5256;48.728;9.140;2022-11-15T05:47:07;0.50;;;0.50;;
10418;SDS011;5256;48.728;9.140;2022-11-15T05:49:35;0.50;;;0.50;;
10418;SDS011;5256;48.728;9.140;2022-11-15T05:52:03;0.60;;;0.60;;
10418;SDS011;5256;48.728;9.140;2022-11-15T05:54:32;0.60;;;0.60;;
10418;SDS011;5256;48.728;9.140;2022-11-15T05:57:00;0.47;;;0.47;;
10418;SDS011;5256;48.728;9.140;2022-11-15T05:59:27;0.50;;;0.50;;
10418;SDS011;5256;48.728;9.140;2022-11-15T06:01:55;0.53;;;0.53;;
10418;SDS011;5256;48.728;9.140;2022-11-15T06:04:20;0.50;;;0.50;;
10418;SDS011;5256;48.728;9.140;2022-11-15T06:06:46;0.50;;;0.50;;
10418;SDS011;5256;48.728;9.140;2022-11-15T06:09:11;0.50;;;0.50;;
10418;SDS011;5256;48.728;9.140;2022-11-15T06:11:37;0.50;;;0.50;;
10418;SDS011;5256;48.728;9.140;2022-11-15T06:14:02;0.40;;;0.40;;
10418;SDS011;5256;48.728;9.140;2022-11-15T06:16:28;0.50;;;0.50;;
10418;SDS011;5256;48.728;9.140;2022-11-15T06:18:53;0.40;;;0.40;;
10418;SDS011;5256;48.728;9.140;2022-11-15T06:21:19;0.50;;;0.50;;
10418;SDS011;5256;48.728;9.140;2022-11-15T06:23:44;0.50;;;0.50;;
10418;SDS011;5256;48.728;9.140;2022-11-15T06:26:10;0.50;;;0.50;;
10418;SDS011;5256;48.728;9.140;2022-11-15T06:28:35;0.50;;;0.50;;
10418;SDS011;5256;48.728;9.140;2022-11-15T06:31:05;0.50;;;0.50;;
10418;SDS011;5256;48.728;9.140;2022-11-15T06:33:32;0.50;;;0.50;;
10418;SDS011;5256;48.728;9.140;2022-11-15T06:36:04;0.50;;;0.50;;
10418;SDS011;5256;48.728;9.140;2022-11-15T06:38:32;0.60;;;0.60;;
10418;SDS011;5256;48.728;9.140;2022-11-15T06:41:01;0.40;;;0.40;;
10418;SDS011;5256;48.728;9.140;2022-11-15T06:43:27;0.50;;;0.50;;
10418;SDS011;5256;48.728;9.140;2022-11-15T06:45:53;0.60;;;0.60;;
10418;SDS011;5256;48.728;9.140;2022-11-15T06:48:18;0.50;;;0.50;;
10418;SDS011;5256;48.728;9.140;2022-11-15T06:50:50;0.50;;;0.50;;
10418;SDS011;5256;48.728;9.140;2022-11-15T06:53:16;0.43;;;0.43;;
10418;SDS011;5256;48.728;9.140;2022-11-15T06:55:42;0.50;;;0.50;;
10418;SDS011;5256;48.728;9.140;2022-11-15T06:58:08;0.50;;;0.50;;
10418;SDS011;5256;48.728;9.140;2022-11-15T07:00:33;0.57;;;0.57;;
10418;SDS011;5256;48.728;9.140;2022-11-15T07:02:59;0.50;;;0.50;;
10418;SDS011;5256;48.728;9.140;2022-11-15T07:05:25;0.40;;;0.40;;
10418;SDS011;5256;48.728;9.140;2022-11-15T07:07:52;0.50;;;0.50;;
10418;SDS011;5256;48.728;9.140;2022-11-15T07:10:18;0.50;;;0.50;;
10418;SDS011;5256;48.728;9.140;2022-11-15T07:12:48;0.60;;;0.60;;
10418;SDS011;5256;48.728;9.140;2022-11-15T07:15:14;0.50;;;0.50;;
10418;SDS011;5256;48.728;9.140;2022-11-15T07:17:41;0.50;;;0.50;;
10418;SDS011;5256;48.728;9.140;2022-11-15T07:20:06;0.40;;;0.40;;
10418;SDS011;5256;48.728;9.140;2022-11-15T07:22:32;0.50;;;0.50;;
10418;SDS011;5256;48.728;9.140;2022-11-15T07:24:58;0.40;;;0.40;;
10418;SDS011;5256;48.728;9.140;2022-11-15T07:27:23;0.50;;;0.50;;
10418;SDS011;5256;48.728;9.140;2022-11-15T07:29:49;0.40;;;0.40;;
10418;SDS011;5256;48.728;9.140;2022-11-15T07:32:14;0.40;;;0.40;;
10418;SDS011;5256;48.728;9.140;2022-11-15T07:37:33;0.50;;;0.50;;
10418;SDS011;5256;48.728;9.140;2022-11-15T07:39:59;0.50;;;0.50;;
10418;SDS011;5256;48.728;9.140;2022-11-15T07:42:24;0.40;;;0.40;;
10418;SDS011;5256;48.728;9.140;2022-11-15T07:45:08;0.50;;;0.50;;
10418;SDS011;5256;48.728;9.140;2022-11-15T07:47:34;0.40;;;0.40;;
10418;SDS011;5256;48.728;9.140;2022-11-15T07:49:59;0.40;;;0.40;;
10418;SDS011;5256;48.728;9.140;2022-11-15T07:52:25;0.50;;;0.50;;
10418;SDS011;5256;48.728;9.140;2022-11-15T07:54:51;0.40;;;0.40;;
10418;SDS011;5256;48.728;9.140;2022-11-15T07:57:16;0.43;;;0.43;;
10418;SDS011;5256;48.728;9.140;2022-11-15T07:59:42;0.40;;;0.40;;
10418;SDS011;5256;48.728;9.140;2022-11-15T08:02:08;0.40;;;0.40;;
10418;SDS011;5256;48.728;9.140;2022-11-15T08:04:34;0.40;;;0.40;;
10418;SDS011;5256;48.728;9.140;2022-11-15T08:07:00;0.40;;;0.40;;
10418;SDS011;5256;48.728;9.140;2022-11-15T08:09:25;0.40;;;0.40;;
10418;SDS011;5256;48.728;9.140;2022-11-15T08:11:51;0.37;;;0.37;;
10418;SDS011;5256;48.728;9.140;2022-11-15T08:14:16;0.40;;;0.40;;
10418;SDS011;5256;48.728;9.140;2022-11-15T08:16:42;0.40;;;0.40;;
10418;SDS011;5256;48.728;9.140;2022-11-15T08:19:08;0.50;;;0.50;;
10418;SDS011;5256;48.728;9.140;2022-11-15T08:21:33;0.50;;;0.50;;
10418;SDS011;5256;48.728;9.140;2022-11-15T08:24:00;0.37;;;0.37;;
10418;SDS011;5256;48.728;9.140;2022-11-15T08:26:25;0.40;;;0.40;;
10418;SDS011;5256;48.728;9.140;2022-11-15T08:28:54;0.40;;;0.40;;
10418;SDS011;5256;48.728;9.140;2022-11-15T08:31:19;0.30;;;0.30;;
10418;SDS011;5256;48.728;9.140;2022-11-15T08:33:45;0.40;;;0.40;;
10418;SDS011;5256;48.728;9.140;2022-11-15T08:36:14;0.30;;;0.30;;
10418;SDS011;5256;48.728;9.140;2022-11-15T08:41:47;0.33;;;0.33;;
10418;SDS011;5256;48.728;9.140;2022-11-15T08:44:13;0.40;;;0.40;;
10418;SDS011;5256;48.728;9.140;2022-11-15T08:46:38;0.40;;;0.40;;
10418;SDS011;5256;48.728;9.140;2022-11-15T08:49:04;0.30;;;0.30;;
10418;SDS011;5256;48.728;9.140;2022-11-15T08:51:29;0.30;;;0.30;;
10418;SDS011;5256;48.728;9.140;2022-11-15T08:53:55;0.30;;;0.30;;
10418;SDS011;5256;48.728;9.140;2022-11-15T08:56:20;0.33;;;0.33;;
10418;SDS011;5256;48.728;9.140;2022-11-15T08:58:46;0.30;;;0.30;;
10418;SDS011;5256;48.728;9.140;2022-11-15T09:01:18;0.30;;;0.30;;
10418;SDS011;5256;48.728;9.140;2022-11-15T09:03:45;0.30;;;0.30;;
10418;SDS011;5256;48.728;9.140;2022-11-15T09:06:11;0.30;;;0.30;;
10418;SDS011;5256;48.728;9.140;2022-11-15T09:08:37;0.30;;;0.30;;
10418;SDS011;5256;48.728;9.140;2022-11-15T09:11:06;0.30;;;0.30;;
10418;SDS011;5256;48.728;9.140;2022-11-15T09:13:33;0.30;;;0.30;;
10418;SDS011;5256;48.728;9.140;2022-11-15T09:15:59;0.30;;;0.30;;
10418;SDS011;5256;48.728;9.140;2022-11-15T09:18:25;0.40;;;0.40;;
10418;SDS011;5256;48.728;9.140;2022-11-15T09:20:54;0.40;;;0.40;;
10418;SDS011;5256;48.728;9.140;2022-11-15T09:23:21;0.30;;;0.30;;
10418;SDS011;5256;48.728;9.140;2022-11-15T09:25:47;0.30;;;0.30;;
10418;SDS011;5256;48.728;9.140;2022-11-15T09:28:13;0.23;;;0.23;;
10418;SDS011;5256;48.728;9.140;2022-11-15T09:30:38;0.30;;;0.30;;
10418;SDS011;5256;48.728;9.140;2022-11-15T09:33:07;0.43;;;0.43;;
10418;SDS011;5256;48.728;9.140;2022-11-15T09:35:33;0.30;;;0.30;;
10418;SDS011;5256;48.728;9.140;2022-11-15T09:37:59;0.40;;;0.40;;
10418;SDS011;5256;48.728;9.140;2022-11-15T09:40:25;0.30;;;0.30;;
10418;SDS011;5256;48.728;9.140;2022-11-15T09:50:58;0.40;;;0.40;;
10418;SDS011;5256;48.728;9.140;2022-11-15T09:53:25;0.40;;;0.40;;
10418;SDS011;5256;48.728;9.140;2022-11-15T09:56:01;0.30;;;0.30;;
10418;SDS011;5256;48.728;9.140;2022-11-15T10:01:17;0.30;;;0.30;;
10418;SDS011;5256;48.728;9.140;2022-11-15T10:03:50;0.30;;;0.30;;
10418;SDS011;5256;48.728;9.140;2022-11-15T10:06:22;0.40;;;0.40;;
10418;SDS011;5256;48.728;9.140;2022-11-15T10:09:09;0.30;;;0.30;;
10418;SDS011;5256;48.728;9.140;2022-11-15T10:11:40;0.30;;;0.30;;
10418;SDS011;5256;48.728;9.140;2022-11-15T10:14:17;0.20;;;0.20;;
10418;SDS011;5256;48.728;9.140;2022-11-15T10:17:08;0.30;;;0.30;;
10418;SDS011;5256;48.728;9.140;2022-11-15T10:27:39;0.40;;;0.40;;
10418;SDS011;5256;48.728;9.140;2022-11-15T10:30:10;0.30;;;0.30;;
10418;SDS011;5256;48.728;9.140;2022-11-15T10:32:40;0.30;;;0.30;;
10418;SDS011;5256;48.728;9.140;2022-11-15T10:35:17;0.30;;;0.30;;
10418;SDS011;5256;48.728;9.140;2022-11-15T10:37:45;0.30;;;0.30;;
10418;SDS011;5256;48.728;9.140;2022-11-15T10:42:44;0.20;;;0.20;;
10418;SDS011;5256;48.728;9.140;2022-11-15T10:45:27;0.30;;;0.30;;
10418;SDS011;5256;48.728;9.140;2022-11-15T10:48:18;0.30;;;0.30;;
10418;SDS011;5256;48.728;9.140;2022-11-15T10:50:46;0.30;;;0.30;;
10418;SDS011;5256;48.728;9.140;2022-11-15T10:53:37;0.30;;;0.30;;
10418;SDS011;5256;48.728;9.140;2022-11-15T10:56:11;0.30;;;0.30;;
10418;SDS011;5256;48.728;9.140;2022-11-15T10:58:51;0.30;;;0.30;;
10418;SDS011;5256;48.728;9.140;2022-11-15T11:01:24;0.30;;;0.30;;
10418;SDS011;5256;48.728;9.140;2022-11-15T11:04:01;0.30;;;0.30;;
10418;SDS011;5256;48.728;9.140;2022-11-15T11:06:29;0.30;;;0.30;;
10418;SDS011;5256;48.728;9.140;2022-11-15T11:09:05;0.20;;;0.20;;
10418;SDS011;5256;48.728;9.140;2022-11-15T11:11:47;0.30;;;0.30;;
10418;SDS011;5256;48.728;9.140;2022-11-15T11:19:40;0.30;;;0.30;;
10418;SDS011;5256;48.728;9.140;2022-11-15T11:25:04;0.30;;;0.30;;
10418;SDS011;5256;48.728;9.140;2022-11-15T11:27:57;0.43;;;0.43;;
10418;SDS011;5256;48.728;9.140;2022-11-15T11:30:52;0.40;;;0.40;;
10418;SDS011;5256;48.728;9.140;2022-11-15T11:33:44;0.40;;;0.40;;
10418;SDS011;5256;48.728;9.140;2022-11-15T11:36:21;0.40;;;0.40;;
10418;SDS011;5256;48.728;9.140;2022-11-15T11:38:56;0.30;;;0.30;;
10418;SDS011;5256;48.728;9.140;2022-11-15T11:44:26;0.30;;;0.30;;
10418;SDS011;5256;48.728;9.140;2022-11-15T11:47:00;0.30;;;0.30;;
10418;SDS011;5256;48.728;9.140;2022-11-15T11:49:44;0.30;;;0.30;;
10418;SDS011;5256;48.728;9.140;2022-11-15T11:55:02;0.40;;;0.40;;
10418;SDS011;5256;48.728;9.140;2022-11-15T11:57:40;0.40;;;0.40;;
10418;SDS011;5256;48.728;9.140;2022-11-15T12:00:21;0.30;;;0.30;;
10418;SDS011;5256;48.728;9.140;2022-11-15T12:05:25;0.30;;;0.30;;
10418;SDS011;5256;48.728;9.140;2022-11-15T12:10:50;0.30;;;0.30;;
10418;SDS011;5256;48.728;9.140;2022-11-15T12:13:29;0.30;;;0.30;;
10418;SDS011;5256;48.728;9.140;2022-11-15T12:16:02;0.20;;;0.20;;
10418;SDS011;5256;48.728;9.140;2022-11-15T12:18:32;0.30;;;0.30;;
10418;SDS011;5256;48.728;9.140;2022-11-15T12:21:00;0.50;;;0.50;;
10418;SDS011;5256;48.728;9.140;2022-11-15T12:23:32;0.30;;;0.30;;
10418;SDS011;5256;48.728;9.140;2022-11-15T12:26:10;0.30;;;0.30;;
10418;SDS011;5256;48.728;9.140;2022-11-15T12:28:42;0.30;;;0.30;;
10418;SDS011;5256;48.728;9.140;2022-11-15T12:31:20;0.20;;;0.20;;
10418;SDS011;5256;48.728;9.140;2022-11-15T12:33:56;0.30;;;0.30;;
10418;SDS011;5256;48.728;9.140;2022-11-15T12:39:02;0.30;;;0.30;;
10418;SDS011;5256;48.728;9.140;2022-11-15T12:41:29;0.27;;;0.27;;
10418;SDS011;5256;48.728;9.140;2022-11-15T12:43:56;0.33;;;0.33;;
10418;SDS011;5256;48.728;9.140;2022-11-15T12:49:02;0.40;;;0.40;;
10418;SDS011;5256;48.728;9.140;2022-11-15T13:04:49;0.30;;;0.30;;
10418;SDS011;5256;48.728;9.140;2022-11-15T13:07:58;0.30;;;0.30;;
10418;SDS011;5256;48.728;9.140;2022-11-15T13:12:52;0.30;;;0.30;;
10418;SDS011;5256;48.728;9.140;2022-11-15T13:22:43;0.30;;;0.30;;
10418;SDS011;5256;48.728;9.140;2022-11-15T13:28:09;0.30;;;0.30;;
10418;SDS011;5256;48.728;9.140;2022-11-15T13:30:40;0.40;;;0.40;;
10418;SDS011;5256;48.728;9.140;2022-11-15T13:33:55;0.40;;;0.40;;
10418;SDS011;5256;48.728;9.140;2022-11-15T13:38:40;0.23;;;0.23;;
10418;SDS011;5256;48.728;9.140;2022-11-15T13:41:27;0.30;;;0.30;;
10418;SDS011;5256;48.728;9.140;2022-11-15T13:44:00;0.30;;;0.30;;
10418;SDS011;5256;48.728;9.140;2022-11-15T13:46:28;0.30;;;0.30;;
10418;SDS011;5256;48.728;9.140;2022-11-15T13:51:38;0.40;;;0.40;;
10418;SDS011;5256;48.728;9.140;2022-11-15T13:56:37;0.30;;;0.30;;
10418;SDS011;5256;48.728;9.140;2022-11-15T13:59:08;0.30;;;0.30;;
10418;SDS011;5256;48.728;9.140;2022-11-15T14:01:40;0.40;;;0.40;;
10418;SDS011;5256;48.728;9.140;2022-11-15T14:04:12;0.27;;;0.27;;
10418;SDS011;5256;48.728;9.140;2022-11-15T14:06:47;0.30;;;0.30;;
10418;SDS011;5256;48.728;9.140;2022-11-15T14:09:24;0.40;;;0.40;;
10418;SDS011;5256;48.728;9.140;2022-11-15T14:11:54;0.30;;;0.30;;
10418;SDS011;5256;48.728;9.140;2022-11-15T14:14:22;0.30;;;0.30;;
10418;SDS011;5256;48.728;9.140;2022-11-15T14:16:50;0.30;;;0.30;;
10418;SDS011;5256;48.728;9.140;2022-11-15T14:24:33;0.30;;;0.30;;
10418;SDS011;5256;48.728;9.140;2022-11-15T14:29:54;0.40;;;0.40;;
10418;SDS011;5256;48.728;9.140;2022-11-15T14:32:21;0.30;;;0.30;;
10418;SDS011;5256;48.728;9.140;2022-11-15T14:34:59;0.37;;;0.37;;
10418;SDS011;5256;48.728;9.140;2022-11-15T14:37:29;0.33;;;0.33;;
10418;SDS011;5256;48.728;9.140;2022-11-15T14:39:59;0.37;;;0.37;;
10418;SDS011;5256;48.728;9.140;2022-11-15T14:42:25;0.30;;;0.30;;
10418;SDS011;5256;48.728;9.140;2022-11-15T14:44:51;0.40;;;0.40;;
10418;SDS011;5256;48.728;9.140;2022-11-15T14:47:17;0.30;;;0.30;;
10418;SDS011;5256;48.728;9.140;2022-11-15T14:49:42;0.50;;;0.50;;
10418;SDS011;5256;48.728;9.140;2022-11-15T14:54:59;0.30;;;0.30;;
10418;SDS011;5256;48.728;9.140;2022-11-15T14:57:27;0.37;;;0.37;;
10418;SDS011;5256;48.728;9.140;2022-11-15T14:59:53;0.40;;;0.40;;
10418;SDS011;5256;48.728;9.140;2022-11-15T15:02:19;0.40;;;0.40;;
10418;SDS011;5256;48.728;9.140;2022-11-15T15:04:49;0.30;;;0.30;;
10418;SDS011;5256;48.728;9.140;2022-11-15T15:07:15;0.40;;;0.40;;
10418;SDS011;5256;48.728;9.140;2022-11-15T15:09:42;0.50;;;0.50;;
10418;SDS011;5256;48.728;9.140;2022-11-15T15:12:15;0.40;;;0.40;;
10418;SDS011;5256;48.728;9.140;2022-11-15T15:14:41;0.40;;;0.40;;
10418;SDS011;5256;48.728;9.140;2022-11-15T15:17:07;0.40;;;0.40;;
10418;SDS011;5256;48.728;9.140;2022-11-15T15:19:32;0.50;;;0.50;;
10418;SDS011;5256;48.728;9.140;2022-11-15T15:21:58;0.30;;;0.30;;
10418;SDS011;5256;48.728;9.140;2022-11-15T15:24:23;0.40;;;0.40;;
10418;SDS011;5256;48.728;9.140;2022-11-15T15:26:49;0.40;;;0.40;;
10418;SDS011;5256;48.728;9.140;2022-11-15T15:29:14;0.33;;;0.33;;
10418;SDS011;5256;48.728;9.140;2022-11-15T15:31:40;0.40;;;0.40;;
10418;SDS011;5256;48.728;9.140;2022-11-15T15:34:06;0.50;;;0.50;;
10418;SDS011;5256;48.728;9.140;2022-11-15T15:36:31;0.40;;;0.40;;
10418;SDS011;5256;48.728;9.140;2022-11-15T15:38:57;0.40;;;0.40;;
10418;SDS011;5256;48.728;9.140;2022-11-15T15:41:22;0.30;;;0.30;;
10418;SDS011;5256;48.728;9.140;2022-11-15T15:43:48;0.40;;;0.40;;
10418;SDS011;5256;48.728;9.140;2022-11-15T15:46:14;0.40;;;0.40;;
10418;SDS011;5256;48.728;9.140;2022-11-15T15:48:41;0.40;;;0.40;;
10418;SDS011;5256;48.728;9.140;2022-11-15T15:51:06;0.30;;;0.30;;
10418;SDS011;5256;48.728;9.140;2022-11-15T15:53:32;0.30;;;0.30;;
10418;SDS011;5256;48.728;9.140;2022-11-15T15:55:58;0.47;;;0.47;;
10418;SDS011;5256;48.728;9.140;2022-11-15T15:58:24;0.40;;;0.40;;
10418;SDS011;5256;48.728;9.140;2022-11-15T16:00:50;0.30;;;0.30;;
10418;SDS011;5256;48.728;9.140;2022-11-15T16:03:16;0.40;;;0.40;;
10418;SDS011;5256;48.728;9.140;2022-11-15T16:05:41;0.40;;;0.40;;
10418;SDS011;5256;48.728;9.140;2022-11-15T16:08:17;0.37;;;0.37;;
10418;SDS011;5256;48.728;9.140;2022-11-15T16:10:44;0.50;;;0.50;;
10418;SDS011;5256;48.728;9.140;2022-11-15T16:13:10;0.40;;;0.40;;
10418;SDS011;5256;48.728;9.140;2022-11-15T16:15:35;0.50;;;0.50;;
10418;SDS011;5256;48.728;9.140;2022-11-15T16:18:01;0.50;;;0.50;;
10418;SDS011;5256;48.728;9.140;2022-11-15T16:20:41;0.50;;;0.50;;
10418;SDS011;5256;48.728;9.140;2022-11-15T16:23:18;0.50;;;0.50;;
10418;SDS011;5256;48.728;9.140;2022-11-15T16:25:47;0.50;;;0.50;;
10418;SDS011;5256;48.728;9.140;2022-11-15T16:28:36;0.50;;;0.50;;
10418;SDS011;5256;48.728;9.140;2022-11-15T16:31:10;0.40;;;0.40;;
10418;SDS011;5256;48.728;9.140;2022-11-15T16:33:36;0.40;;;0.40;;
10418;SDS011;5256;48.728;9.140;2022-11-15T16:36:03;0.40;;;0.40;;
10418;SDS011;5256;48.728;9.140;2022-11-15T16:38:31;0.47;;;0.47;;
10418;SDS011;5256;48.728;9.140;2022-11-15T16:40:57;0.40;;;0.40;;
10418;SDS011;5256;48.728;9.140;2022-11-15T16:43:22;0.40;;;0.40;;
10418;SDS011;5256;48.728;9.140;2022-11-15T16:45:48;0.30;;;0.30;;
10418;SDS011;5256;48.728;9.140;2022-11-15T16:50:46;0.40;;;0.40;;
10418;SDS011;5256;48.728;9.140;2022-11-15T16:53:11;0.40;;;0.40;;
10418;SDS011;5256;48.728;9.140;2022-11-15T16:55:37;0.30;;;0.30;;
10418;SDS011;5256;48.728;9.140;2022-11-15T16:58:02;0.50;;;0.50;;
10418;SDS011;5256;48.728;9.140;2022-11-15T17:00:28;0.40;;;0.40;;
10418;SDS011;5256;48.728;9.140;2022-11-15T17:02:54;0.30;;;0.30;;
10418;SDS011;5256;48.728;9.140;2022-11-15T17:05:21;0.30;;;0.30;;
10418;SDS011;5256;48.728;9.140;2022-11-15T17:07:48;0.40;;;0.40;;
10418;SDS011;5256;48.728;9.140;2022-11-15T17:10:16;0.40;;;0.40;;
10418;SDS011;5256;48.728;9.140;2022-11-15T17:12:42;0.40;;;0.40;;
10418;SDS011;5256;48.728;9.140;2022-11-15T17:15:08;0.30;;;0.30;;
10418;SDS011;5256;48.728;9.140;2022-11-15T17:17:36;0.50;;;0.50;;
10418;SDS011;5256;48.728;9.140;2022-11-15T17:20:02;0.57;;;0.57;;